Time;durP1;ratioP1;P1;durP2;ratioP2;P2;SDS_P1;SDS_P2;PMS_P1;PMS_P2;Temp;Humidity;BMP_temperature;BMP_pressure;BME280_temperature;BME280_humidity;BME280_pressure;Samples;Min_cycle;Max_cycle;Signal;HPM_P1;HPM_P2
2021/10/08 00:00:20;;;;;;;36.13;18.27;;;;;;;3.16;62.57;102659.42;1789446;80;21031;-70
2021/10/08 00:02:47;;;;;;;30.45;18.10;;;;;;;3.14;62.92;102659.84;1789261;80;21480;-70
2021/10/08 00:05:14;;;;;;;33.50;18.70;;;;;;;3.13;63.10;102654.20;1779794;80;20908;-69
2021/10/08 00:07:40;;;;;;;33.18;17.55;;;;;;;3.11;63.24;102659.41;1768765;81;20944;-70
2021/10/08 00:10:08;;;;;;;29.23;16.30;;;;;;;3.09;63.31;102653.75;1769048;81;20979;-71
2021/10/08 00:12:37;;;;;;;28.52;15.88;;;;;;;3.05;63.28;102662.40;1768669;81;21615;-69
2021/10/08 00:15:06;;;;;;;31.02;17.57;;;;;;;3.03;63.43;102664.11;1768914;80;21370;-69
2021/10/08 00:17:32;;;;;;;36.85;16.77;;;;;;;2.99;63.47;102656.74;1768124;81;20888;-70
2021/10/08 00:20:01;;;;;;;31.55;16.10;;;;;;;2.93;63.50;102651.96;1768070;81;20909;-69
2021/10/08 00:22:27;;;;;;;34.18;17.37;;;;;;;2.89;63.38;102651.96;1768423;81;20917;-69
2021/10/08 00:24:56;;;;;;;34.45;17.95;;;;;;;2.88;63.11;102649.35;1768247;81;21438;-69
2021/10/08 00:27:23;;;;;;;29.02;16.20;;;;;;;2.86;63.15;102645.88;1768450;81;20916;-69
2021/10/08 00:29:50;;;;;;;29.35;17.00;;;;;;;2.84;63.27;102649.75;1768187;81;20881;-69
2021/10/08 00:32:17;;;;;;;32.83;15.80;;;;;;;2.84;63.10;102663.14;1768026;80;20968;-69
2021/10/08 00:34:44;;;;;;;30.30;16.55;;;;;;;2.83;63.07;102659.70;1768312;81;20871;-70
2021/10/08 00:37:11;;;;;;;25.90;15.38;;;;;;;2.84;62.71;102657.96;1768295;80;21544;-69
2021/10/08 00:39:38;;;;;;;33.85;14.87;;;;;;;2.86;62.37;102653.22;1768135;81;20956;-70
2021/10/08 00:42:05;;;;;;;27.02;12.78;;;;;;;2.85;62.42;102650.20;1768227;81;21011;-70
2021/10/08 00:44:32;;;;;;;25.92;13.83;;;;;;;2.86;62.24;102647.18;1768107;81;20975;-69
2021/10/08 00:46:59;;;;;;;31.70;14.35;;;;;;;2.87;62.16;102640.72;1768297;80;20906;-69
2021/10/08 00:49:26;;;;;;;28.40;13.25;;;;;;;2.89;62.14;102644.59;1768473;81;21103;-70
2021/10/08 00:51:53;;;;;;;29.50;13.03;;;;;;;2.92;62.04;102650.24;1768193;81;20913;-69
2021/10/08 00:54:20;;;;;;;28.20;12.70;;;;;;;2.95;61.95;102645.92;1768352;80;20997;-70
2021/10/08 00:56:47;;;;;;;30.00;13.53;;;;;;;2.97;62.09;102647.23;1768153;81;20936;-69
2021/10/08 00:59:14;;;;;;;27.32;13.00;;;;;;;3.00;61.95;102642.94;1768383;81;21350;-70
2021/10/08 01:01:40;;;;;;;23.22;12.65;;;;;;;3.03;61.99;102644.23;1768147;81;21125;-71
2021/10/08 01:04:08;;;;;;;27.87;12.95;;;;;;;3.08;62.07;102645.55;1768382;81;20897;-69
2021/10/08 01:06:35;;;;;;;21.05;10.98;;;;;;;3.10;62.14;102647.28;1773913;80;20928;-68
2021/10/08 01:09:01;;;;;;;20.75;11.53;;;;;;;3.15;62.24;102648.59;1775345;80;20936;-69
2021/10/08 01:11:28;;;;;;;24.85;12.13;;;;;;;3.18;61.97;102644.73;1775289;80;21405;-70
2021/10/08 01:13:56;;;;;;;25.23;12.35;;;;;;;3.21;61.96;102649.92;1775368;80;21136;-71
2021/10/08 01:16:23;;;;;;;26.90;12.40;;;;;;;3.26;61.99;102646.90;1775210;80;21410;-70
2021/10/08 01:18:50;;;;;;;28.47;11.95;;;;;;;3.29;61.98;102643.05;1775570;80;20877;-71
2021/10/08 01:21:17;;;;;;;28.52;12.93;;;;;;;3.33;61.95;102645.19;1775205;80;20932;-70
2021/10/08 01:23:46;;;;;;;19.60;9.95;;;;;;;3.37;61.77;102642.19;1752916;80;21347;-70
2021/10/08 01:26:14;;;;;;;25.97;11.38;;;;;;;3.39;61.59;102641.77;1738134;82;21842;-70
2021/10/08 01:28:40;;;;;;;27.32;11.70;;;;;;;3.42;61.36;102642.62;1775374;80;20901;-70
2021/10/08 01:31:09;;;;;;;24.70;10.80;;;;;;;3.44;61.45;102638.73;1775036;80;21441;-70
2021/10/08 01:33:50;;;;;;;21.95;11.10;;;;;;;3.46;61.42;102636.58;1773610;80;21455;-70
2021/10/08 01:36:17;;;;;;;13.18;6.65;;;;;;;3.49;60.73;102632.72;1775247;80;20892;-70
2021/10/08 01:38:45;;;;;;;22.90;10.20;;;;;;;3.53;61.17;102633.56;1738495;82;21839;-70
2021/10/08 01:41:11;;;;;;;23.83;11.25;;;;;;;3.57;61.18;102631.42;1775030;80;20881;-70
2021/10/08 01:43:39;;;;;;;19.32;11.03;;;;;;;3.63;61.49;102634.03;1775273;80;20916;-69
2021/10/08 01:46:07;;;;;;;16.32;6.00;;;;;;;3.66;61.38;102629.27;1775226;80;21418;-70
2021/10/08 01:48:36;;;;;;;7.05;4.10;;;;;;;3.70;61.03;102630.57;1775294;80;20864;-70
2021/10/08 01:51:03;;;;;;;7.75;3.25;;;;;;;3.76;59.45;102632.32;1775262;80;21141;-71
2021/10/08 01:53:31;;;;;;;9.58;5.40;;;;;;;3.84;59.22;102634.47;1753155;80;21390;-70
2021/10/08 01:55:58;;;;;;;10.88;4.30;;;;;;;3.94;58.89;102632.77;1775282;80;20881;-69
2021/10/08 01:58:27;;;;;;;11.55;3.20;;;;;;;4.04;57.46;102633.17;1775250;80;20889;-69
2021/10/08 02:00:54;;;;;;;9.00;3.50;;;;;;;4.16;56.97;102637.52;1738432;82;20865;-69
2021/10/08 02:03:22;;;;;;;7.47;3.42;;;;;;;4.26;56.57;102637.06;1774732;80;21159;-69
2021/10/08 02:05:50;;;;;;;6.20;3.02;;;;;;;4.37;56.36;102643.10;1778162;80;20876;-69
2021/10/08 02:08:17;;;;;;;6.87;3.20;;;;;;;4.46;55.49;102640.48;1783437;80;20948;-68
2021/10/08 02:10:45;;;;;;;9.58;2.92;;;;;;;4.57;55.06;102640.03;1783536;80;20963;-70
2021/10/08 02:13:13;;;;;;;5.92;2.62;;;;;;;4.68;54.65;102643.05;1783482;80;20884;-71
2021/10/08 02:15:42;;;;;;;8.83;2.70;;;;;;;4.77;53.95;102637.81;1783568;80;21802;-70
2021/10/08 02:18:09;;;;;;;5.60;2.80;;;;;;;4.87;53.90;102637.33;1783350;80;20924;-70
2021/10/08 02:20:37;;;;;;;8.60;3.10;;;;;;;4.96;53.85;102639.48;1783254;80;21010;-70
2021/10/08 02:23:04;;;;;;;4.87;2.65;;;;;;;5.04;53.57;102643.78;1783496;80;20876;-70
2021/10/08 02:25:31;;;;;;;6.42;3.12;;;;;;;5.10;53.35;102643.31;1783496;80;20967;-69
2021/10/08 02:27:58;;;;;;;6.47;2.90;;;;;;;5.16;53.15;102642.00;1783366;80;22179;-69
2021/10/08 02:30:25;;;;;;;8.40;3.15;;;;;;;5.23;52.89;102645.44;1783679;80;20967;-69
2021/10/08 02:32:52;;;;;;;6.90;2.70;;;;;;;5.30;52.69;102647.56;1783490;80;20884;-70
2021/10/08 02:35:19;;;;;;;12.58;4.30;;;;;;;5.37;52.46;102647.95;1783455;80;20971;-70
2021/10/08 02:37:47;;;;;;;8.90;2.95;;;;;;;5.43;52.02;102653.13;1783328;80;20971;-69
2021/10/08 02:40:14;;;;;;;7.28;3.12;;;;;;;5.49;51.58;102655.70;1783684;80;21525;-71
2021/10/08 02:42:42;;;;;;;7.55;3.12;;;;;;;5.56;51.42;102656.09;1783395;80;20916;-71
2021/10/08 02:45:09;;;;;;;4.20;3.05;;;;;;;5.62;51.24;102659.07;1783712;80;21529;-70
2021/10/08 02:47:36;;;;;;;4.47;2.65;;;;;;;5.68;50.89;102661.64;1783321;80;21548;-70
2021/10/08 02:50:03;;;;;;;11.22;3.85;;;;;;;5.74;50.75;102662.05;1783572;80;20919;-71
2021/10/08 02:52:31;;;;;;;6.12;2.67;;;;;;;5.79;50.54;102657.66;1783445;80;21118;-70
2021/10/08 02:54:58;;;;;;;11.12;2.90;;;;;;;5.84;50.25;102654.58;1783314;80;20919;-71
2021/10/08 02:57:25;;;;;;;12.18;2.80;;;;;;;5.89;50.21;102650.64;1783440;80;20927;-71
2021/10/08 02:59:52;;;;;;;10.08;4.22;;;;;;;5.94;49.97;102656.28;1783425;80;20868;-71
2021/10/08 03:02:19;;;;;;;5.35;3.15;;;;;;;5.98;49.80;102654.50;1783347;80;22015;-71
2021/10/08 03:04:46;;;;;;;6.80;3.10;;;;;;;6.02;49.69;102654.91;1783378;80;21470;-71
2021/10/08 03:07:13;;;;;;;8.75;2.77;;;;;;;6.05;49.72;102652.30;1776713;80;20927;-70
2021/10/08 03:09:41;;;;;;;7.03;2.75;;;;;;;6.09;49.68;102657.02;1775112;80;21011;-71
2021/10/08 03:12:07;;;;;;;8.18;3.30;;;;;;;6.12;49.51;102660.48;1775118;80;20885;-71
2021/10/08 03:14:35;;;;;;;10.88;3.58;;;;;;;6.14;49.39;102656.56;1738118;82;21523;-71
2021/10/08 03:17:02;;;;;;;10.18;3.02;;;;;;;6.17;49.19;102663.89;1775132;80;21119;-70
2021/10/08 03:19:29;;;;;;;6.67;3.17;;;;;;;6.19;48.77;102667.36;1774968;80;20972;-70
2021/10/08 03:21:56;;;;;;;3.72;2.25;;;;;;;6.22;48.72;102663.44;1775110;80;20952;-70
2021/10/08 03:24:23;;;;;;;5.95;2.95;;;;;;;6.28;48.75;102662.95;1775473;80;21441;-69
2021/10/08 03:26:52;;;;;;;9.35;2.87;;;;;;;6.30;48.59;102669.02;1775152;80;20881;-69
2021/10/08 03:29:19;;;;;;;10.35;3.12;;;;;;;6.33;48.63;102670.28;1775346;80;21552;-70
2021/10/08 03:31:46;;;;;;;4.78;2.52;;;;;;;6.34;48.53;102665.06;1774944;80;20900;-70
2021/10/08 03:34:13;;;;;;;6.72;3.35;;;;;;;6.36;48.50;102667.22;1775420;80;20830;-70
2021/10/08 03:39:12;;;;;;;8.75;2.67;;;;;;;6.40;48.22;102671.94;1775182;80;20853;-70
2021/10/08 03:41:41;;;;;;;7.10;2.90;;;;;;;6.42;48.26;102667.58;1775176;80;21142;-70
2021/10/08 03:44:07;;;;;;;11.60;2.35;;;;;;;6.42;48.20;102668.88;1775416;80;20940;-71
2021/10/08 03:46:41;;;;;;;9.35;2.37;;;;;;;6.44;48.03;102677.55;1775024;80;21362;-70
2021/10/08 03:51:34;;;;;;;10.63;3.65;;;;;;;6.47;48.23;102670.14;1775537;80;21406;-70
2021/10/08 03:54:01;;;;;;;13.93;2.87;;;;;;;6.49;48.18;102666.66;1775490;80;21097;-70
2021/10/08 03:56:28;;;;;;;5.35;2.22;;;;;;;6.50;48.19;102670.13;1775124;80;20936;-69
2021/10/08 03:58:56;;;;;;;9.33;2.62;;;;;;;6.51;48.25;102670.09;1775499;80;21011;-69
2021/10/08 04:01:23;;;;;;;10.93;2.80;;;;;;;6.52;48.10;102670.53;1775561;80;20932;-70
2021/10/08 04:03:51;;;;;;;14.05;2.50;;;;;;;6.54;47.75;102666.62;1775519;80;20963;-71
2021/10/08 04:06:20;;;;;;;8.88;2.58;;;;;;;6.56;47.87;102667.47;1775022;80;21160;-72
2021/10/08 04:09:10;;;;;;;5.75;2.25;;;;;;;6.56;47.92;102670.08;1774571;80;20888;-71
2021/10/08 04:11:40;;;;;;;7.37;2.80;;;;;;;6.57;47.91;102676.55;1775154;80;20968;-71
2021/10/08 04:14:06;;;;;;;9.40;2.55;;;;;;;6.60;48.00;102683.47;1775283;80;20983;-70
2021/10/08 04:16:36;;;;;;;8.55;2.85;;;;;;;6.61;48.06;102675.65;1775368;80;21485;-71
2021/10/08 04:19:05;;;;;;;11.60;3.08;;;;;;;6.63;47.79;102680.41;1775172;80;21338;-71
2021/10/08 04:21:32;;;;;;;12.13;3.17;;;;;;;6.64;47.71;102672.14;1738432;82;21442;-72
2021/10/08 04:23:59;;;;;;;5.83;2.10;;;;;;;6.65;47.66;102676.49;1775272;80;20900;-71
2021/10/08 04:26:26;;;;;;;10.10;3.98;;;;;;;6.66;47.58;102679.51;1738514;82;21485;-71
2021/10/08 04:28:55;;;;;;;15.03;3.12;;;;;;;6.68;47.67;102681.66;1775368;80;20884;-70
2021/10/08 04:31:22;;;;;;;10.90;3.75;;;;;;;6.69;47.79;102679.46;1775613;80;22119;-71
2021/10/08 04:33:49;;;;;;;12.50;3.02;;;;;;;6.71;47.56;102687.28;1775239;80;20889;-70
2021/10/08 04:36:17;;;;;;;11.73;3.52;;;;;;;6.73;47.58;102685.52;1775481;80;20951;-71
2021/10/08 04:38:44;;;;;;;12.00;2.85;;;;;;;6.74;47.17;102688.57;1775177;80;21470;-71
2021/10/08 04:41:11;;;;;;;12.95;2.52;;;;;;;6.75;47.27;102692.89;1775440;80;20893;-72
2021/10/08 04:43:40;;;;;;;10.50;2.65;;;;;;;6.77;47.42;102687.22;1738098;82;21161;-71
2021/10/08 04:46:07;;;;;;;16.93;3.00;;;;;;;6.77;47.57;102693.30;1775370;80;20929;-69
2021/10/08 04:48:35;;;;;;;9.58;2.25;;;;;;;6.77;47.26;102695.91;1775140;80;20975;-71
2021/10/08 04:51:02;;;;;;;17.23;3.33;;;;;;;6.80;47.35;102698.91;1775312;80;21410;-70
2021/10/08 04:53:29;;;;;;;15.63;3.30;;;;;;;6.81;47.29;102697.59;1775184;80;20984;-69
2021/10/08 04:55:56;;;;;;;9.18;2.83;;;;;;;6.82;47.24;102703.67;1775520;80;22119;-70
2021/10/08 04:58:24;;;;;;;14.93;2.87;;;;;;;6.84;47.15;102704.52;1775071;80;20857;-69
2021/10/08 05:00:51;;;;;;;11.95;2.98;;;;;;;6.85;47.12;102704.97;1775021;80;20860;-72
2021/10/08 05:03:19;;;;;;;10.70;2.75;;;;;;;6.87;47.24;102708.42;1775167;80;20896;-72
2021/10/08 05:05:50;;;;;;;12.03;2.62;;;;;;;6.89;47.53;102701.86;1737367;82;20964;-73
2021/10/08 05:08:21;;;;;;;14.68;2.90;;;;;;;6.90;47.04;102704.47;1774578;80;21093;-76
2021/10/08 05:10:49;;;;;;;8.55;3.10;;;;;;;6.92;47.15;102707.06;1738052;82;20936;-75
2021/10/08 05:13:16;;;;;;;10.08;3.05;;;;;;;6.93;47.02;102710.94;1775069;80;21128;-74
2021/10/08 05:15:43;;;;;;;13.28;2.87;;;;;;;6.95;47.00;102713.09;1738148;82;20961;-74
2021/10/08 05:18:12;;;;;;;18.27;3.20;;;;;;;6.98;46.83;102708.27;1775117;80;21406;-75
2021/10/08 05:20:39;;;;;;;14.70;3.27;;;;;;;6.95;46.85;102703.11;1775175;80;21126;-74
2021/10/08 05:23:05;;;;;;;14.53;2.70;;;;;;;7.02;47.17;102713.89;1775150;80;21047;-74
2021/10/08 05:25:32;;;;;;;12.70;3.50;;;;;;;7.05;47.05;102719.09;1775463;80;20944;-74
2021/10/08 05:28:00;;;;;;;20.70;3.22;;;;;;;7.08;46.93;102720.80;1775267;80;21413;-73
2021/10/08 05:30:27;;;;;;;11.95;3.60;;;;;;;7.06;46.54;102720.35;1775228;80;20967;-73
2021/10/08 05:32:54;;;;;;;15.60;3.58;;;;;;;7.11;46.51;102726.82;1738056;82;21808;-73
2021/10/08 05:35:22;;;;;;;12.85;3.27;;;;;;;7.13;46.34;102721.15;1775091;80;20904;-74
2021/10/08 05:37:49;;;;;;;17.45;3.65;;;;;;;7.15;46.38;102723.75;1753479;80;20940;-74
2021/10/08 05:40:15;;;;;;;11.60;2.60;;;;;;;7.17;46.24;102724.59;1775217;80;20904;-74
2021/10/08 05:42:44;;;;;;;16.97;3.85;;;;;;;7.18;46.25;102721.98;1738451;82;21051;-73
2021/10/08 05:45:11;;;;;;;17.62;3.50;;;;;;;7.21;46.18;102723.69;1775186;80;21150;-73
2021/10/08 05:47:38;;;;;;;12.35;3.27;;;;;;;7.23;46.40;102717.55;1775128;80;20972;-72
2021/10/08 05:50:06;;;;;;;18.32;4.40;;;;;;;7.28;46.03;102737.52;1775182;80;21432;-73
2021/10/08 05:52:33;;;;;;;16.27;3.25;;;;;;;7.29;45.89;102724.87;1775257;80;20932;-75
2021/10/08 05:55:01;;;;;;;15.72;3.25;;;;;;;7.29;45.69;102724.43;1738180;82;20948;-71
2021/10/08 05:57:28;;;;;;;11.63;3.42;;;;;;;7.31;45.87;102732.25;1775151;80;21118;-72
2021/10/08 05:59:55;;;;;;;20.65;4.10;;;;;;;7.33;45.87;102723.52;1775426;80;20924;-70
2021/10/08 06:02:21;;;;;;;18.73;3.37;;;;;;;7.37;46.00;102729.13;1737994;82;20940;-70
2021/10/08 06:04:48;;;;;;;9.53;3.33;;;;;;;7.40;45.93;102730.41;1774987;80;20892;-70
2021/10/08 06:07:16;;;;;;;18.45;4.42;;;;;;;7.43;45.51;102731.66;1741381;82;20904;-69
2021/10/08 06:09:45;;;;;;;20.32;4.25;;;;;;;7.45;45.63;102725.98;1783404;80;21122;-71
2021/10/08 06:12:13;;;;;;;11.88;3.45;;;;;;;7.50;45.43;102728.98;1783355;80;21393;-71
2021/10/08 06:14:42;;;;;;;12.90;3.90;;;;;;;7.55;45.37;102730.63;1783494;80;20892;-71
2021/10/08 06:17:09;;;;;;;14.33;4.00;;;;;;;7.61;45.34;102736.23;1783341;80;20892;-70
2021/10/08 06:19:36;;;;;;;16.42;4.35;;;;;;;7.66;45.39;102739.18;1783509;80;20951;-70
2021/10/08 06:22:03;;;;;;;16.00;3.72;;;;;;;7.71;45.26;102734.34;1783361;80;21054;-70
2021/10/08 06:24:31;;;;;;;17.87;4.80;;;;;;;7.73;45.43;102726.90;1783396;80;20912;-71
2021/10/08 06:26:59;;;;;;;14.40;3.80;;;;;;;7.79;45.50;102730.73;1783401;80;21440;-71
2021/10/08 06:29:27;;;;;;;14.15;4.15;;;;;;;7.84;45.27;102733.28;1783382;80;20943;-70
2021/10/08 06:31:54;;;;;;;10.88;4.45;;;;;;;7.88;45.46;102731.05;1783453;80;20907;-70
2021/10/08 06:34:21;;;;;;;11.28;4.03;;;;;;;7.92;45.37;102730.12;1783387;80;21149;-70
2021/10/08 06:36:49;;;;;;;20.10;4.60;;;;;;;7.98;45.39;102729.15;1783308;80;20951;-70
2021/10/08 06:39:16;;;;;;;13.72;4.62;;;;;;;8.03;45.25;102728.21;1783424;80;20916;-70
2021/10/08 06:41:43;;;;;;;14.07;4.58;;;;;;;8.08;45.36;102731.61;1783354;80;20885;-70
2021/10/08 07:44:33;;;;;;;13.80;6.00;;;;;;;9.84;44.11;102712.56;1682694;81;21235;31
2021/10/08 07:46:59;;;;;;;35.03;8.78;;;;;;;9.94;44.26;102711.46;1629493;86;21501;-70
2021/10/08 07:49:28;;;;;;;16.17;6.75;;;;;;;10.05;44.35;102709.44;1598183;89;21148;-71
2021/10/08 07:51:57;;;;;;;15.40;5.42;;;;;;;10.15;43.84;102704.36;1616927;86;20971;-71
2021/10/08 07:54:24;;;;;;;13.78;5.67;;;;;;;10.27;43.91;102699.29;1578847;91;21537;-72
2021/10/08 07:56:51;;;;;;;18.92;5.95;;;;;;;10.42;43.79;102698.05;1578834;89;21015;-74
2021/10/08 07:59:18;;;;;;;19.05;6.17;;;;;;;10.56;43.54;102698.98;1578920;90;21063;-72
2021/10/08 08:01:46;;;;;;;14.83;5.50;;;;;;;10.70;43.40;102693.40;1578685;90;21140;-71
2021/10/08 08:04:13;;;;;;;17.10;5.03;;;;;;;10.82;43.08;102698.75;1578654;90;21091;-71
2021/10/08 08:06:41;;;;;;;20.48;5.42;;;;;;;10.89;43.06;102701.15;1578737;89;20981;-71
2021/10/08 08:09:07;;;;;;;19.82;5.87;;;;;;;10.96;42.96;102696.16;1578700;89;21033;-71
2021/10/08 08:11:34;;;;;;;20.88;5.55;;;;;;;11.06;42.60;102706.39;1604063;87;21003;-73
2021/10/08 08:14:01;;;;;;;20.08;6.17;;;;;;;11.13;42.86;102694.80;1635622;87;21476;-72
2021/10/08 08:16:28;;;;;;;20.68;5.20;;;;;;;11.20;42.97;102702.48;1668895;84;20903;-71
2021/10/08 08:18:55;;;;;;;15.20;4.80;;;;;;;11.22;42.83;102706.81;1668878;84;21460;-71
2021/10/08 08:21:22;;;;;;;13.18;5.80;;;;;;;11.23;42.62;102701.95;1669116;85;20966;-71
2021/10/08 08:23:49;;;;;;;20.57;6.17;;;;;;;11.16;42.88;102711.34;1668969;86;20907;-73
2021/10/08 08:26:16;;;;;;;16.62;4.67;;;;;;;11.21;43.17;102713.84;1668801;84;21147;-73
2021/10/08 08:28:43;;;;;;;14.98;5.20;;;;;;;11.25;42.96;102711.53;1668908;84;20994;-71
2021/10/08 08:31:10;;;;;;;17.98;5.47;;;;;;;11.30;42.88;102704.37;1669160;86;20943;-72
2021/10/08 08:33:37;;;;;;;12.35;4.97;;;;;;;11.33;43.29;102709.52;1668911;85;21593;-73
2021/10/08 08:36:05;;;;;;;21.27;4.95;;;;;;;11.36;42.94;102708.14;1668968;84;20990;-72
2021/10/08 08:38:32;;;;;;;14.53;4.90;;;;;;;11.39;42.83;102708.03;1668896;84;21147;-70
2021/10/08 08:41:01;;;;;;;15.78;6.22;;;;;;;11.41;42.98;102700.12;1669120;84;20863;-72
2021/10/08 08:43:28;;;;;;;17.92;5.40;;;;;;;11.40;42.86;102698.38;1668830;84;20899;-71
2021/10/08 08:45:56;;;;;;;23.98;5.75;;;;;;;11.41;42.67;102692.23;1666621;84;21512;-72
2021/10/08 08:48:23;;;;;;;11.33;5.30;;;;;;;11.40;42.83;102693.12;1664159;86;20872;-71
2021/10/08 08:50:50;;;;;;;15.13;6.03;;;;;;;11.43;42.56;102690.86;1664167;86;21515;-72
2021/10/08 08:53:23;;;;;;;25.00;5.12;;;;;;;11.48;43.03;102684.56;1663920;85;21444;-71
2021/10/08 08:55:50;;;;;;;10.93;4.70;;;;;;;11.53;42.83;102694.94;1663968;85;21453;-72
2021/10/08 08:58:20;;;;;;;20.80;5.80;;;;;;;11.56;42.77;102690.89;1664012;85;20872;-72
2021/10/08 09:01:01;;;;;;;16.65;5.47;;;;;;;11.62;42.51;102690.24;1664176;85;21451;-72
2021/10/08 09:03:30;;;;;;;15.90;4.17;;;;;;;11.69;42.30;102691.37;1664544;85;21119;-74
2021/10/08 09:05:57;;;;;;;17.20;3.80;;;;;;;11.71;41.75;102681.21;1664110;85;21579;-74
2021/10/08 09:08:32;;;;;;;15.20;3.70;;;;;;;11.75;42.03;102683.30;1663890;85;20987;-73
2021/10/08 09:11:00;;;;;;;9.65;4.62;;;;;;;11.79;41.90;102680.98;1664010;85;21460;-74
2021/10/08 09:13:28;;;;;;;13.20;5.22;;;;;;;11.80;42.18;102678.31;1663886;85;20892;-74
2021/10/08 09:15:58;;;;;;;13.22;4.78;;;;;;;11.89;41.98;102690.77;1664150;85;21147;-74
2021/10/08 09:18:29;;;;;;;17.60;5.40;;;;;;;11.95;41.63;102682.23;1664054;85;21149;-76
2021/10/08 09:21:13;;;;;;;11.25;5.28;;;;;;;11.99;41.87;102674.66;1663943;85;20975;-74
2021/10/08 09:23:47;;;;;;;23.40;6.47;;;;;;;12.04;41.76;102675.81;1664058;85;20931;-74
2021/10/08 09:26:18;;;;;;;20.13;5.73;;;;;;;12.11;41.52;102676.47;1664237;85;21472;-74
2021/10/08 09:28:55;;;;;;;16.20;5.90;;;;;;;12.16;41.50;102676.73;1664039;85;21144;-75
2021/10/08 09:31:39;;;;;;;18.17;6.92;;;;;;;12.23;41.23;102669.03;1663947;85;21050;-75
2021/10/08 09:34:18;;;;;;;22.80;9.40;;;;;;;12.32;40.99;102674.44;1664232;85;21002;-73
2021/10/08 09:36:50;;;;;;;25.45;10.93;;;;;;;12.38;40.82;102667.66;1663950;85;20946;-74
2021/10/08 09:39:20;;;;;;;23.05;9.90;;;;;;;12.43;40.33;102664.40;1664039;85;20895;-73
2021/10/08 09:41:55;;;;;;;27.10;11.90;;;;;;;12.48;40.23;102665.55;1664285;85;21095;-73
2021/10/08 09:44:22;;;;;;;21.12;10.75;;;;;;;12.57;40.28;102658.64;1663789;85;21345;-76
2021/10/08 09:46:49;;;;;;;21.60;11.40;;;;;;;12.63;39.98;102663.70;1661042;84;20919;-75
2021/10/08 09:49:25;;;;;;;23.20;11.78;;;;;;;12.76;40.20;102671.13;1659662;84;21432;-75
2021/10/08 09:51:51;;;;;;;32.78;16.00;;;;;;;12.89;39.12;102666.28;1659787;84;20990;-76
2021/10/08 09:54:18;;;;;;;32.83;16.20;;;;;;;12.97;37.68;102667.72;1659637;85;21432;-76
2021/10/08 09:56:45;;;;;;;33.28;18.40;;;;;;;12.99;37.49;102660.63;1659678;85;21440;-77
2021/10/08 09:59:13;;;;;;;40.83;22.37;;;;;;;13.04;38.24;102660.45;1659681;84;20915;-76
2021/10/08 10:01:42;;;;;;;45.08;24.75;;;;;;;13.10;36.66;102657.59;1659611;85;20856;-77
2021/10/08 10:04:10;;;;;;;45.98;27.55;;;;;;;13.16;35.82;102649.90;1659649;84;20895;-77
2021/10/08 10:06:39;;;;;;;48.33;30.92;;;;;;;13.16;35.56;102648.58;1659665;86;21538;-78
2021/10/08 10:09:08;;;;;;;54.83;30.70;;;;;;;13.16;34.87;102652.09;1659725;84;21120;-76
2021/10/08 10:11:36;;;;;;;55.63;34.43;;;;;;;13.22;34.73;102652.30;1659695;84;20994;-75
2021/10/08 10:14:03;;;;;;;62.33;32.95;;;;;;;13.30;33.78;102642.84;1659645;84;20947;-78
2021/10/08 10:16:36;;;;;;;56.55;33.48;;;;;;;13.41;33.19;102645.44;1659938;83;20939;-77
2021/10/08 10:19:01;;;;;;;63.10;33.63;;;;;;;13.53;33.41;102640.13;1659639;83;22006;-76
2021/10/08 10:21:31;;;;;;;57.03;35.35;;;;;;;13.63;33.29;102642.81;1659589;84;20899;-76
2021/10/08 10:24:00;;;;;;;66.00;38.78;;;;;;;13.70;32.61;102638.61;1659811;84;21369;-75
2021/10/08 10:26:33;;;;;;;69.42;39.38;;;;;;;13.68;32.48;102639.52;1659653;84;20868;-76
2021/10/08 10:29:00;;;;;;;68.67;43.15;;;;;;;13.67;32.47;102640.88;1659781;84;20876;-76
2021/10/08 10:31:27;;;;;;;80.22;44.55;;;;;;;13.50;32.65;102641.58;1659720;85;21133;-76
2021/10/08 10:34:00;;;;;;;75.50;47.98;;;;;;;13.50;32.65;102641.58;1659652;86;20915;-74
2021/10/08 10:36:40;;;;;;;82.02;48.17;;;;;;;13.44;32.18;102629.96;1659864;86;21404;-75
2021/10/08 10:39:19;;;;;;;83.30;48.00;;;;;;;13.41;32.20;102640.63;1659619;84;21445;-75
2021/10/08 10:42:03;;;;;;;82.15;49.40;;;;;;;13.34;31.25;102641.34;1659679;84;21019;-75
2021/10/08 10:44:38;;;;;;;80.05;46.95;;;;;;;13.26;31.71;102635.00;1660054;84;21130;-77
2021/10/08 10:47:24;;;;;;;79.50;47.48;;;;;;;13.16;31.37;102637.61;1659834;83;20998;-76
2021/10/08 10:49:57;;;;;;;73.62;45.00;;;;;;;13.05;31.42;102631.89;1660329;83;20991;-74
2021/10/08 10:52:24;;;;;;;78.62;45.52;;;;;;;13.01;32.32;102631.61;1632158;86;21459;-74
2021/10/08 10:54:55;;;;;;;81.60;45.78;;;;;;;13.03;32.21;102625.83;1660043;85;20860;-74
2021/10/08 10:57:31;;;;;;;76.05;44.67;;;;;;;13.04;32.29;102630.16;1659711;84;21121;-74
2021/10/08 11:00:32;;;;;;;81.30;48.05;;;;;;;13.03;31.98;102638.99;1659809;84;20923;-74
2021/10/08 11:03:07;;;;;;;76.00;46.08;;;;;;;13.00;31.59;102624.60;1659706;86;20911;-73
2021/10/08 11:05:37;;;;;;;77.03;48.68;;;;;;;12.96;31.63;102623.00;1659879;84;20947;-72
2021/10/08 11:08:15;;;;;;;76.62;45.55;;;;;;;12.98;32.08;102627.75;1659857;86;20915;-73
2021/10/08 11:11:03;;;;;;;71.22;41.70;;;;;;;13.04;32.05;102620.94;1659847;85;21066;-74
2021/10/08 11:13:33;;;;;;;70.05;43.55;;;;;;;13.11;31.16;102617.61;1660619;83;21457;-73
2021/10/08 11:16:07;;;;;;;68.28;42.67;;;;;;;13.16;31.50;102620.92;1659699;84;21512;-74
2021/10/08 11:18:47;;;;;;;56.40;36.55;;;;;;;13.20;31.20;102618.10;1659738;86;21033;-75
2021/10/08 11:22:50;;;;;;;62.85;35.90;;;;;;;13.30;30.86;102621.75;1798525;79;22567;-75
2021/10/08 11:25:17;;;;;;;56.05;35.75;;;;;;;13.25;30.47;102615.28;1758135;81;20928;-72
2021/10/08 11:27:48;;;;;;;55.35;34.50;;;;;;;13.26;30.47;102606.48;1758354;80;21393;-73
2021/10/08 11:30:14;;;;;;;48.13;31.00;;;;;;;13.29;30.55;102606.84;1758336;81;20963;-72
2021/10/08 11:32:46;;;;;;;46.30;26.52;;;;;;;13.33;30.25;102599.22;1758253;80;20873;-73
2021/10/08 11:35:18;;;;;;;46.55;27.37;;;;;;;13.33;30.25;102599.22;1758142;80;21547;-72
2021/10/08 11:37:43;;;;;;;42.17;26.77;;;;;;;13.37;30.27;102602.98;1757959;81;20971;-72
2021/10/08 11:40:13;;;;;;;41.65;24.43;;;;;;;13.42;30.56;102604.97;1758165;81;21079;-72
2021/10/08 11:42:44;;;;;;;38.42;24.25;;;;;;;13.46;30.30;102599.98;1758031;81;20841;-72
2021/10/08 11:45:13;;;;;;;33.58;20.70;;;;;;;13.53;30.59;102604.55;1758246;80;20931;-72
2021/10/08 11:47:43;;;;;;;34.90;19.55;;;;;;;13.58;29.85;102599.08;1755245;81;20897;-71
2021/10/08 11:52:44;;;;;;;24.45;11.12;;;;;;;13.65;30.19;102609.77;1758168;81;21305;-72
2021/10/08 11:55:25;;;;;;;24.50;10.43;;;;;;;13.64;27.93;102603.64;1757936;81;21421;-73
2021/10/08 11:58:11;;;;;;;25.68;9.85;;;;;;;13.63;28.61;102607.22;1758288;81;21011;-72
2021/10/08 12:00:44;;;;;;;20.55;8.03;;;;;;;13.61;27.18;102603.78;1758405;80;20944;-72
2021/10/08 12:03:21;;;;;;;17.52;7.35;;;;;;;13.54;27.83;102606.28;1758357;81;20935;-73
2021/10/08 12:06:04;;;;;;;15.90;6.97;;;;;;;13.47;27.88;102607.42;1758005;81;21624;-72
2021/10/08 12:08:37;;;;;;;15.48;6.95;;;;;;;13.42;27.63;102599.70;1757984;81;21303;-72
2021/10/08 12:11:10;;;;;;;17.65;7.65;;;;;;;13.41;27.46;102622.19;1758510;80;20908;-71
2021/10/08 12:13:45;;;;;;;15.08;7.42;;;;;;;13.36;27.77;102618.85;1758134;81;21363;-72
2021/10/08 12:16:18;;;;;;;14.65;8.15;;;;;;;13.34;27.54;102609.72;1758714;81;20884;-71
2021/10/08 12:18:56;;;;;;;19.82;8.53;;;;;;;13.29;27.19;102614.28;1758227;80;21149;-72
2021/10/08 12:21:29;;;;;;;16.60;6.95;;;;;;;13.23;27.05;102613.20;1754167;81;20980;-73
2021/10/08 12:24:03;;;;;;;20.85;7.30;;;;;;;13.18;27.92;102613.35;1744796;81;21008;-73
2021/10/08 12:26:31;;;;;;;14.40;6.42;;;;;;;13.18;28.11;102605.45;1745357;81;20897;-73
2021/10/08 12:29:00;;;;;;;14.60;6.40;;;;;;;13.18;27.68;102600.17;1744998;82;20897;-75
2021/10/08 12:31:50;;;;;;;16.52;6.00;;;;;;;13.15;27.55;102617.44;1745307;82;21066;-73
2021/10/08 12:34:48;;;;;;;12.20;6.45;;;;;;;13.11;27.66;102604.44;1744509;80;20988;-76
2021/10/08 12:37:22;;;;;;;12.33;6.30;;;;;;;13.08;27.60;102607.20;1743820;80;20858;-74
2021/10/08 12:40:13;;;;;;;15.68;6.40;;;;;;;13.05;27.36;102602.92;1744495;81;20925;-73